Navi Breeze — V4JJ2 — position and weather

sailwx.info

Track history (hours):
 
Tides and Currents Weather Stations Pressure Air Temp Water Temp Dewpoint Dewpoint Depression Visibility Wind Speed Wind Dir Waves Ship Positions

Navi Breeze

Last reported at 2014-Jul-24 19:26 UTC. Time now 2014-Jul-30 13:15 UTC.
Position N 40°57' E 028°55'.

Length 114 m; draft 3.8 m.

Type: Cargo ship. MMSI: 341071000.

Date/timePositionNaut miles runAvg speedWind from/ knotsBaromVisibWave heightAir tempDewpointWater temp
2014-Jul-24 19:26N 40°57' E 028°55'316 7.0
2014-Jul-22 22:20N 43°39' E 035°01'13 7.5
2014-Jul-22 20:33N 43°49' E 035°13'8 7.8
2014-Jul-22 19:34N 43°55' E 035°21'8 8.2
2014-Jul-22 18:34N 44°01' E 035°29'8 8.4
2014-Jul-22 17:33N 44°07' E 035°37'17 8.5
2014-Jul-22 15:33N 44°20' E 035°52'8 8.3
2014-Jul-22 14:33N 44°26' E 035°60'12 8.0
2014-Jul-22 13:04N 44°36' E 036°10'4 7.9
2014-Jul-22 12:33N 44°39' E 036°14'8 7.8
2014-Jul-22 11:33N 44°45' E 036°21'  
Track history (hours):
 
Tides and Currents Weather Stations Pressure Air Temp Water Temp Dewpoint Dewpoint Depression Visibility Wind Speed Wind Dir Waves Ship Positions

Navi Breeze

Last reported at 2014-Jul-24 19:26 UTC. Time now 2014-Jul-30 13:15 UTC.
Position N 40°57' E 028°55'.

Length 114 m; draft 3.8 m.

Type: Cargo ship. MMSI: 341071000.

Date/timePositionNaut miles runAvg speedWind from/ knotsBaromVisibWave heightAir tempDewpointWater temp
2014-Jul-24 19:26N 40°57' E 028°55'316 7.0
2014-Jul-22 22:20N 43°39' E 035°01'13 7.5
2014-Jul-22 20:33N 43°49' E 035°13'8 7.8
2014-Jul-22 19:34N 43°55' E 035°21'8 8.2
2014-Jul-22 18:34N 44°01' E 035°29'8 8.4
2014-Jul-22 17:33N 44°07' E 035°37'17 8.5
2014-Jul-22 15:33N 44°20' E 035°52'8 8.3
2014-Jul-22 14:33N 44°26' E 035°60'12 8.0
2014-Jul-22 13:04N 44°36' E 036°10'4 7.9
2014-Jul-22 12:33N 44°39' E 036°14'8 7.8
2014-Jul-22 11:33N 44°45' E 036°21'  

Dump ship's entire track history